Time;durP1;ratioP1;P1;durP2;ratioP2;P2;SDS_P1;SDS_P2;PMS_P1;PMS_P2;Temp;Humidity;BMP_temperature;BMP_pressure;BME280_temperature;BME280_humidity;BME280_pressure;Samples;Min_cycle;Max_cycle;Signal;HPM_P1;HPM_P2
2022/12/21 00:00:09;;;;;;;;;;;;;;;;;;4918174;29;20483;-92
2022/12/21 00:02:34;;;;;;;;;;;;;;;;;;4918316;29;19919;-91
2022/12/21 00:05:00;;;;;;;;;;;;;;;;;;4917459;29;19923;-91
2022/12/21 00:07:25;;;;;;;;;;;;;;;;;;4918264;29;19925;-92
2022/12/21 00:09:50;;;;;;;;;;;;;;;;;;4950553;29;19914;-92
2022/12/21 00:12:16;;;;;;;;;;;;;;;;;;4940372;29;20017;-91
2022/12/21 00:14:41;;;;;;;;;;;;;;;;;;4921890;29;19918;-91
2022/12/21 00:17:07;;;;;;;;;;;;;;;;;;4927631;29;20391;-92
2022/12/21 00:19:33;;;;;;;;;;;;;;;;;;4917987;29;20371;-91
2022/12/21 00:21:58;;;;;;;;;;;;;;;;;;4917688;29;19918;-91
2022/12/21 00:24:23;;;;;;;;;;;;;;;;;;4949474;29;19947;-92
2022/12/21 00:30:06;;;;;;;;;;;;;;;;;;4938009;29;19923;-91
2022/12/21 00:32:32;;;;;;;;;;;;;;;;;;4939997;28;19935;-91
2022/12/21 00:34:57;;;;;;;;;;;;;;;;;;4934803;29;20025;-91
2022/12/21 00:37:22;;;;;;;;;;;;;;;;;;4934189;29;20323;-91
2022/12/21 00:39:48;;;;;;;;;;;;;;;;;;4917901;29;19918;-92
2022/12/21 00:42:14;;;;;;;;;;;;;;;;;;4935115;29;20009;-92
2022/12/21 00:44:40;;;;;;;;;;;;;;;;;;4934622;29;19922;-91
2022/12/21 00:47:05;;;;;;;;;;;;;;;;;;4934921;29;20018;-91
2022/12/21 00:49:31;;;;;;;;;;;;;;;;;;4934786;29;19919;-91
2022/12/21 00:51:56;;;;;;;;;;;;;;;;;;4933461;29;19970;-90
2022/12/21 00:54:22;;;;;;;;;;;;;;;;;;4933528;29;20287;-91
2022/12/21 00:56:47;;;;;;;;;;;;;;;;;;4933301;29;19914;-91
2022/12/21 00:59:13;;;;;;;;;;;;;;;;;;4934880;29;19918;-91
2022/12/21 01:01:38;;;;;;;;;;;;;;;;;;4934528;29;20467;-90
2022/12/21 01:04:04;;;;;;;;;;;;;;;;;;4938744;29;19930;-92
2022/12/21 01:06:31;;;;;;;;;;;;;;;;;;4933480;29;19927;-91
2022/12/21 01:08:56;;;;;;;;;;;;;;;;;;4935740;29;19915;-92
2022/12/21 01:11:24;;;;;;;;;;;;;;;;;;4937291;29;19926;-93
2022/12/21 01:13:49;;;;;;;;;;;;;;;;;;4937066;29;19934;-91
2022/12/21 01:16:25;;;;;;;;;;;;;;;;;;4937995;29;19918;-89
2022/12/21 01:18:50;;;;;;;;;;;;;;;;;;4937140;29;19923;-91
2022/12/21 01:21:18;;;;;;;;;;;;;;;;;;4937981;29;19942;-91
2022/12/21 01:23:44;;;;;;;;;;;;;;;;;;4938294;29;19922;-91
2022/12/21 01:26:09;;;;;;;;;;;;;;;;;;4937034;29;19934;-90
2022/12/21 01:28:35;;;;;;;;;;;;;;;;;;4936819;29;20459;-93
2022/12/21 01:31:01;;;;;;;;;;;;;;;;;;4936701;29;19978;-90
2022/12/21 01:33:27;;;;;;;;;;;;;;;;;;4937135;29;20268;-90
2022/12/21 01:35:52;;;;;;;;;;;;;;;;;;4936738;29;19923;-90
2022/12/21 01:38:18;;;;;;;;;;;;;;;;;;4922628;29;20367;-90
2022/12/21 01:40:43;;;;;;;;;;;;;;;;;;4937307;29;19926;-91
2022/12/21 01:43:35;;;;;;;;;;;;;;;;;;4936755;29;19922;-91
2022/12/21 01:46:00;;;;;;;;;;;;;;;;;;4936172;29;19923;-90
2022/12/21 01:48:25;;;;;;;;;;;;;;;;;;4936233;29;19931;-90
2022/12/21 01:50:59;;;;;;;;;;;;;;;;;;4936495;29;20374;-89
2022/12/21 01:53:30;;;;;;;;;;;;;;;;;;4937679;29;19926;-90
2022/12/21 01:55:57;;;;;;;;;;;;;;;;;;4937276;29;20370;-90
2022/12/21 01:58:24;;;;;;;;;;;;;;;;;;4936222;29;19919;-89
2022/12/21 02:00:50;;;;;;;;;;;;;;;;;;4920133;29;19919;-91
2022/12/21 02:03:17;;;;;;;;;;;;;;;;;;4937344;29;20069;-91
2022/12/21 02:05:46;;;;;;;;;;;;;;;;;;4936178;29;19945;-89
2022/12/21 02:08:11;;;;;;;;;;;;;;;;;;4935922;29;19965;-92
2022/12/21 02:10:36;;;;;;;;;;;;;;;;;;4935962;29;20021;-90
2022/12/21 02:13:04;;;;;;;;;;;;;;;;;;4935664;29;20273;-91
2022/12/21 02:15:55;;;;;;;;;;;;;;;;;;4936028;29;20432;-91
2022/12/21 02:18:40;;;;;;;;;;;;;;;;;;4935017;29;19911;-90
2022/12/21 02:21:22;;;;;;;;;;;;;;;;;;4936249;29;19919;-90
2022/12/21 02:24:07;;;;;;;;;;;;;;;;;;4921038;29;20272;-89
2022/12/21 02:26:38;;;;;;;;;;;;;;;;;;5045349;23;19939;-90
2022/12/21 02:29:22;;;;;;;;;;;;;;;;;;4938786;29;20358;-90
2022/12/21 02:32:04;;;;;;;;;;;;;;;;;;4935702;29;19925;-91
2022/12/21 02:34:34;;;;;;;;;;;;;;;;;;4938585;29;20064;-89
2022/12/21 02:37:26;;;;;;;;;;;;;;;;;;4956163;29;19932;-92
2022/12/21 02:39:59;;;;;;;;;;;;;;;;;;4953460;29;19918;-90
2022/12/21 02:45:17;;;;;;;;;;;;;;;;;;4956078;29;19957;-90
2022/12/21 02:47:46;;;;;;;;;;;;;;;;;;4938563;29;20271;-90
2022/12/21 02:50:13;;;;;;;;;;;;;;;;;;4953234;29;20359;-89
2022/12/21 02:52:59;;;;;;;;;;;;;;;;;;4954178;29;19925;-92
2022/12/21 02:55:26;;;;;;;;;;;;;;;;;;4932891;29;19919;-90
2022/12/21 02:58:10;;;;;;;;;;;;;;;;;;4936847;29;20005;-90
2022/12/21 03:00:36;;;;;;;;;;;;;;;;;;4937174;29;19965;-91
2022/12/21 03:06:13;;;;;;;;;;;;;;;;;;4956242;29;19966;-89
2022/12/21 03:08:49;;;;;;;;;;;;;;;;;;4935177;29;19926;-90
2022/12/21 03:11:14;;;;;;;;;;;;;;;;;;4935811;29;20017;-92
2022/12/21 03:13:49;;;;;;;;;;;;;;;;;;4933060;29;20017;-90
2022/12/21 03:16:21;;;;;;;;;;;;;;;;;;4937875;29;20005;-89
2022/12/21 03:18:56;;;;;;;;;;;;;;;;;;4937418;29;19918;-89
2022/12/21 03:21:24;;;;;;;;;;;;;;;;;;4937847;29;19965;-92
2022/12/21 03:24:00;;;;;;;;;;;;;;;;;;4937910;29;20401;-90
2022/12/21 03:26:33;;;;;;;;;;;;;;;;;;4937814;29;19942;-90
2022/12/21 03:28:59;;;;;;;;;;;;;;;;;;4937892;29;19922;-89
2022/12/21 03:31:27;;;;;;;;;;;;;;;;;;4954552;28;19919;-89
2022/12/21 03:34:15;;;;;;;;;;;;;;;;;;4938000;29;20421;-90
2022/12/21 03:36:43;;;;;;;;;;;;;;;;;;4954962;29;19918;-89
2022/12/21 03:39:13;;;;;;;;;;;;;;;;;;4953006;29;19926;-90
2022/12/21 03:41:42;;;;;;;;;;;;;;;;;;4935910;29;19929;-90
2022/12/21 03:44:09;;;;;;;;;;;;;;;;;;4952531;29;19919;-88
2022/12/21 03:46:40;;;;;;;;;;;;;;;;;;4953662;29;19973;-89
2022/12/21 03:49:09;;;;;;;;;;;;;;;;;;4937521;29;19918;-90
2022/12/21 03:51:38;;;;;;;;;;;;;;;;;;4932469;29;20284;-89
2022/12/21 03:54:09;;;;;;;;;;;;;;;;;;4937431;29;19926;-90
2022/12/21 03:56:37;;;;;;;;;;;;;;;;;;4937496;29;19948;-90
2022/12/21 03:59:03;;;;;;;;;;;;;;;;;;4953408;29;19919;-90
2022/12/21 04:01:31;;;;;;;;;;;;;;;;;;4937636;29;19922;-91
2022/12/21 04:04:00;;;;;;;;;;;;;;;;;;4937667;29;19919;-92
2022/12/21 04:06:28;;;;;;;;;;;;;;;;;;4937356;29;20020;-89
2022/12/21 04:08:54;;;;;;;;;;;;;;;;;;4937359;29;20290;-91
2022/12/21 04:14:03;;;;;;;;;;;;;;;;;;4948597;29;19934;-91
2022/12/21 04:16:28;;;;;;;;;;;;;;;;;;4952911;29;19923;-90
2022/12/21 04:21:38;;;;;;;;;;;;;;;;;;4950543;29;19926;-90
2022/12/21 04:29:31;;;;;;;;;;;;;;;;;;4954808;29;20450;-89
2022/12/21 04:31:57;;;;;;;;;;;;;;;;;;4936512;29;20030;-92
2022/12/21 04:34:22;;;;;;;;;;;;;;;;;;4953474;29;19926;-89
2022/12/21 04:39:34;;;;;;;;;;;;;;;;;;4946441;29;19925;-92
2022/12/21 04:41:59;;;;;;;;;;;;;;;;;;4935940;28;20383;-91
2022/12/21 04:44:25;;;;;;;;;;;;;;;;;;4957101;29;19946;-90
2022/12/21 04:46:51;;;;;;;;;;;;;;;;;;4940802;29;19918;-90
2022/12/21 04:49:16;;;;;;;;;;;;;;;;;;4957118;29;19942;-91
2022/12/21 04:51:41;;;;;;;;;;;;;;;;;;4957874;29;20286;-90
2022/12/21 04:54:07;;;;;;;;;;;;;;;;;;4941354;29;19925;-91
2022/12/21 04:56:32;;;;;;;;;;;;;;;;;;4941815;29;20394;-91
2022/12/21 04:58:58;;;;;;;;;;;;;;;;;;4941657;29;19918;-91
2022/12/21 05:01:24;;;;;;;;;;;;;;;;;;4960768;29;19929;-90
2022/12/21 05:03:49;;;;;;;;;;;;;;;;;;4941854;29;19977;-91
2022/12/21 05:06:16;;;;;;;;;;;;;;;;;;4967383;29;19997;-90
2022/12/21 05:08:41;;;;;;;;;;;;;;;;;;4962586;29;19974;-91
2022/12/21 05:11:25;;;;;;;;;;;;;;;;;;4975060;28;19917;-91
2022/12/21 05:13:51;;;;;;;;;;;;;;;;;;4922578;29;19926;-90
2022/12/21 05:16:18;;;;;;;;;;;;;;;;;;4921209;29;19919;-90
2022/12/21 05:18:44;;;;;;;;;;;;;;;;;;4938066;29;19918;-90
2022/12/21 05:21:10;;;;;;;;;;;;;;;;;;4921294;29;19919;-89
2022/12/21 05:23:36;;;;;;;;;;;;;;;;;;4938251;29;19930;-92
2022/12/21 05:26:02;;;;;;;;;;;;;;;;;;4923037;29;19923;-91
2022/12/21 05:28:28;;;;;;;;;;;;;;;;;;4943784;29;20017;-89
2022/12/21 05:30:53;;;;;;;;;;;;;;;;;;4941116;29;19922;-90
2022/12/21 05:33:19;;;;;;;;;;;;;;;;;;4939840;29;19919;-88
2022/12/21 05:35:44;;;;;;;;;;;;;;;;;;4940781;29;19919;-89
2022/12/21 05:38:10;;;;;;;;;;;;;;;;;;4956342;29;19946;-91
2022/12/21 05:40:35;;;;;;;;;;;;;;;;;;4957669;29;20378;-91
2022/12/21 05:43:01;;;;;;;;;;;;;;;;;;4940682;29;19997;-92
2022/12/21 05:45:27;;;;;;;;;;;;;;;;;;4957274;29;19918;-89
2022/12/21 05:47:53;;;;;;;;;;;;;;;;;;4957059;29;20341;-90
2022/12/21 05:50:19;;;;;;;;;;;;;;;;;;4957070;29;19926;-88
2022/12/21 05:52:44;;;;;;;;;;;;;;;;;;4956795;29;20393;-89
2022/12/21 05:55:10;;;;;;;;;;;;;;;;;;4939429;29;19922;-89
2022/12/21 05:57:36;;;;;;;;;;;;;;;;;;4957526;29;20069;-89
2022/12/21 06:00:02;;;;;;;;;;;;;;;;;;4939610;29;19965;-89
2022/12/21 06:02:27;;;;;;;;;;;;;;;;;;4939872;29;19918;-88
2022/12/21 06:04:53;;;;;;;;;;;;;;;;;;4939589;29;19922;-89
2022/12/21 06:07:18;;;;;;;;;;;;;;;;;;4957006;29;19926;-87
2022/12/21 06:09:43;;;;;;;;;;;;;;;;;;4956971;29;19922;-89
2022/12/21 06:12:09;;;;;;;;;;;;;;;;;;4940081;29;20022;-89
2022/12/21 06:14:35;;;;;;;;;;;;;;;;;;4939971;29;19919;-90
2022/12/21 06:17:00;;;;;;;;;;;;;;;;;;4940103;29;19914;-89
2022/12/21 06:19:25;;;;;;;;;;;;;;;;;;4962945;29;19981;-87
2022/12/21 06:21:51;;;;;;;;;;;;;;;;;;4940134;29;19918;-88
2022/12/21 06:24:16;;;;;;;;;;;;;;;;;;4940066;29;19977;-90
2022/12/21 06:26:42;;;;;;;;;;;;;;;;;;4939766;29;19918;-91
2022/12/21 06:29:07;;;;;;;;;;;;;;;;;;4957164;29;20264;-91
2022/12/21 06:31:32;;;;;;;;;;;;;;;;;;4956207;29;20359;-94
2022/12/21 06:33:58;;;;;;;;;;;;;;;;;;4956079;29;20366;-93
2022/12/21 06:36:23;;;;;;;;;;;;;;;;;;4939972;29;20283;-93
2022/12/21 06:38:49;;;;;;;;;;;;;;;;;;4939997;29;19918;-92
2022/12/21 06:41:16;;;;;;;;;;;;;;;;;;4940258;29;19980;-94
2022/12/21 06:43:42;;;;;;;;;;;;;;;;;;4957200;29;20294;-92
2022/12/21 06:46:08;;;;;;;;;;;;;;;;;;4956699;29;20020;-92
2022/12/21 06:48:34;;;;;;;;;;;;;;;;;;4956468;29;20008;-92
2022/12/21 06:51:01;;;;;;;;;;;;;;;;;;4956500;29;19919;-91
2022/12/21 06:53:29;;;;;;;;;;;;;;;;;;4957121;29;20001;-92
2022/12/21 06:56:02;;;;;;;;;;;;;;;;;;4939391;29;19990;-92
2022/12/21 06:58:28;;;;;;;;;;;;;;;;;;4956446;29;19930;-90
2022/12/21 07:00:53;;;;;;;;;;;;;;;;;;4939045;29;19923;-93
2022/12/21 07:03:19;;;;;;;;;;;;;;;;;;4956346;29;19958;-92
2022/12/21 07:05:44;;;;;;;;;;;;;;;;;;4938254;29;20291;-92
2022/12/21 07:08:10;;;;;;;;;;;;;;;;;;4939889;29;20309;-91
2022/12/21 07:10:37;;;;;;;;;;;;;;;;;;4939071;29;19918;-91
2022/12/21 07:13:03;;;;;;;;;;;;;;;;;;4955541;29;19922;-89
2022/12/21 07:15:31;;;;;;;;;;;;;;;;;;4956130;29;19922;-90
2022/12/21 07:17:56;;;;;;;;;;;;;;;;;;4938919;29;19928;-90
2022/12/21 07:20:22;;;;;;;;;;;;;;;;;;4939182;29;20434;-89
2022/12/21 07:22:47;;;;;;;;;;;;;;;;;;4956584;29;19918;-89
2022/12/21 07:25:13;;;;;;;;;;;;;;;;;;4941080;29;19934;-88
2022/12/21 07:27:38;;;;;;;;;;;;;;;;;;4941967;29;19922;-90
2022/12/21 07:30:07;;;;;;;;;;;;;;;;;;4942113;29;20033;-91
2022/12/21 07:32:34;;;;;;;;;;;;;;;;;;4958015;29;20442;-91
2022/12/21 07:35:00;;;;;;;;;;;;;;;;;;4957874;29;19918;-88
2022/12/21 07:37:25;;;;;;;;;;;;;;;;;;4958010;29;20338;-89
2022/12/21 07:39:51;;;;;;;;;;;;;;;;;;4956328;29;20318;-89
2022/12/21 07:42:16;;;;;;;;;;;;;;;;;;4956023;29;19929;-89
2022/12/21 07:44:42;;;;;;;;;;;;;;;;;;4955724;29;19919;-88
2022/12/21 07:47:07;;;;;;;;;;;;;;;;;;4956123;29;20370;-89
2022/12/21 07:49:34;;;;;;;;;;;;;;;;;;4955787;29;20014;-87
2022/12/21 07:51:59;;;;;;;;;;;;;;;;;;4937819;29;19968;-90
2022/12/21 07:54:27;;;;;;;;;;;;;;;;;;4938368;29;20214;-90
2022/12/21 07:56:52;;;;;;;;;;;;;;;;;;4938753;29;20420;-89
2022/12/21 07:59:18;;;;;;;;;;;;;;;;;;4940081;29;19974;-94
2022/12/21 08:01:44;;;;;;;;;;;;;;;;;;4957854;29;19918;-91
2022/12/21 08:04:10;;;;;;;;;;;;;;;;;;4941476;29;20263;-90
2022/12/21 08:06:36;;;;;;;;;;;;;;;;;;4957173;29;19961;-90
2022/12/21 08:09:01;;;;;;;;;;;;;;;;;;4958810;29;19945;-88
2022/12/21 08:11:28;;;;;;;;;;;;;;;;;;4938056;29;20009;-92
2022/12/21 08:13:55;;;;;;;;;;;;;;;;;;4957095;29;19922;-90
2022/12/21 08:18:56;;;;;;;;;;;;;;;;;;5014991;23;19930;-89
2022/12/21 08:21:21;;;;;;;;;;;;;;;;;;4959074;28;19929;-91
2022/12/21 08:23:47;;;;;;;;;;;;;;;;;;4959021;28;20281;-92
2022/12/21 08:26:22;;;;;;;;;;;;;;;;;;4975501;28;20016;-92
2022/12/21 08:28:48;;;;;;;;;;;;;;;;;;4975529;28;19918;-92
2022/12/21 08:31:15;;;;;;;;;;;;;;;;;;4975762;28;19918;-90
2022/12/21 08:33:42;;;;;;;;;;;;;;;;;;4959520;28;20404;-92
2022/12/21 08:36:08;;;;;;;;;;;;;;;;;;4975935;28;20378;-91
2022/12/21 08:38:34;;;;;;;;;;;;;;;;;;4978741;28;20334;-92
2022/12/21 08:41:02;;;;;;;;;;;;;;;;;;4978964;28;19922;-89
2022/12/21 08:43:28;;;;;;;;;;;;;;;;;;4959095;28;20346;-89
2022/12/21 08:45:53;;;;;;;;;;;;;;;;;;4958919;28;19922;-91
2022/12/21 08:48:18;;;;;;;;;;;;;;;;;;4976317;28;19918;-91
2022/12/21 08:50:58;;;;;;;;;;;;;;;;;;4975644;28;20289;-92
2022/12/21 08:53:24;;;;;;;;;;;;;;;;;;4954526;28;20069;-92
2022/12/21 08:55:49;;;;;;;;;;;;;;;;;;4955326;29;19962;-91
2022/12/21 08:58:15;;;;;;;;;;;;;;;;;;4949089;29;20034;-91
2022/12/21 09:00:42;;;;;;;;;;;;;;;;;;4945585;29;19926;-91
2022/12/21 09:03:07;;;;;;;;;;;;;;;;;;4945800;28;19949;-90
2022/12/21 09:05:33;;;;;;;;;;;;;;;;;;4958750;28;19977;-91
2022/12/21 09:07:59;;;;;;;;;;;;;;;;;;4956749;28;19933;-90
2022/12/21 09:10:25;;;;;;;;;;;;;;;;;;4973958;28;20367;-92
2022/12/21 09:12:50;;;;;;;;;;;;;;;;;;4975243;28;19953;-92
2022/12/21 09:15:15;;;;;;;;;;;;;;;;;;4961737;28;19981;-92
2022/12/21 09:17:43;;;;;;;;;;;;;;;;;;4960562;28;19922;-90
2022/12/21 09:20:09;;;;;;;;;;;;;;;;;;4958028;28;19926;-93
2022/12/21 09:22:34;;;;;;;;;;;;;;;;;;4975636;28;19958;-91
2022/12/21 09:25:00;;;;;;;;;;;;;;;;;;4965107;28;20000;-91
2022/12/21 09:27:26;;;;;;;;;;;;;;;;;;4966993;28;19914;-89
2022/12/21 09:29:51;;;;;;;;;;;;;;;;;;4977046;28;19907;-88
2022/12/21 09:32:16;;;;;;;;;;;;;;;;;;4993523;28;19928;-88
2022/12/21 09:34:42;;;;;;;;;;;;;;;;;;4979251;28;19922;-89
2022/12/21 09:37:07;;;;;;;;;;;;;;;;;;4960997;28;19926;-89
2022/12/21 09:39:33;;;;;;;;;;;;;;;;;;4960563;28;19929;-92
2022/12/21 09:42:01;;;;;;;;;;;;;;;;;;4960230;28;19971;-89
2022/12/21 09:44:32;;;;;;;;;;;;;;;;;;4961051;28;19922;-90
2022/12/21 09:46:59;;;;;;;;;;;;;;;;;;4976977;28;19926;-89
2022/12/21 09:49:30;;;;;;;;;;;;;;;;;;4977673;28;19918;-90
2022/12/21 09:51:57;;;;;;;;;;;;;;;;;;4976998;28;20012;-90
2022/12/21 09:54:41;;;;;;;;;;;;;;;;;;4962108;28;19918;-91
2022/12/21 09:57:07;;;;;;;;;;;;;;;;;;4955447;29;19926;-90
2022/12/21 09:59:32;;;;;;;;;;;;;;;;;;4955936;28;20309;-93
2022/12/21 10:02:04;;;;;;;;;;;;;;;;;;4955353;29;19930;-92
2022/12/21 10:04:42;;;;;;;;;;;;;;;;;;4954240;28;19958;-91
2022/12/21 10:07:10;;;;;;;;;;;;;;;;;;4958772;28;19922;-90
2022/12/21 10:09:36;;;;;;;;;;;;;;;;;;4958822;28;19926;-90
2022/12/21 10:12:10;;;;;;;;;;;;;;;;;;4958344;28;19922;-91
2022/12/21 10:14:48;;;;;;;;;;;;;;;;;;4956498;23;19930;-91
2022/12/21 10:17:26;;;;;;;;;;;;;;;;;;4939758;29;20446;-93
2022/12/21 10:19:59;;;;;;;;;;;;;;;;;;4957039;28;20457;-92
2022/12/21 10:22:28;;;;;;;;;;;;;;;;;;4956880;29;19919;-93
2022/12/21 10:24:58;;;;;;;;;;;;;;;;;;4940114;29;19923;-92
2022/12/21 10:27:24;;;;;;;;;;;;;;;;;;4940205;29;20286;-91
2022/12/21 10:29:52;;;;;;;;;;;;;;;;;;4957516;28;19926;-93
2022/12/21 10:32:18;;;;;;;;;;;;;;;;;;4956603;29;20276;-94
2022/12/21 10:34:48;;;;;;;;;;;;;;;;;;4969130;28;19929;-91
2022/12/21 10:37:18;;;;;;;;;;;;;;;;;;4975978;28;19918;-92
2022/12/21 10:39:43;;;;;;;;;;;;;;;;;;4975779;28;19922;-91
2022/12/21 10:42:09;;;;;;;;;;;;;;;;;;4976737;28;20450;-92
2022/12/21 10:44:38;;;;;;;;;;;;;;;;;;4958558;28;19922;-91
2022/12/21 10:47:10;;;;;;;;;;;;;;;;;;4974495;28;20289;-89
2022/12/21 10:49:37;;;;;;;;;;;;;;;;;;4957260;28;19922;-90
2022/12/21 10:52:22;;;;;;;;;;;;;;;;;;4957021;28;19929;-90
2022/12/21 10:54:48;;;;;;;;;;;;;;;;;;4973432;28;19923;-91
2022/12/21 10:57:13;;;;;;;;;;;;;;;;;;4957420;28;19926;-89
2022/12/21 10:59:40;;;;;;;;;;;;;;;;;;4968009;28;20042;-89
2022/12/21 11:02:07;;;;;;;;;;;;;;;;;;4927770;29;19926;-89
2022/12/21 11:04:33;;;;;;;;;;;;;;;;;;4923093;29;20328;-90
2022/12/21 11:07:00;;;;;;;;;;;;;;;;;;4938927;29;20703;-91
2022/12/21 11:09:44;;;;;;;;;;;;;;;;;;4939175;28;19973;-88
2022/12/21 11:12:14;;;;;;;;;;;;;;;;;;4939221;29;19934;-89
2022/12/21 11:14:39;;;;;;;;;;;;;;;;;;4938006;29;20358;-92
2022/12/21 11:17:05;;;;;;;;;;;;;;;;;;4956729;29;19918;-90
2022/12/21 11:19:33;;;;;;;;;;;;;;;;;;4955393;29;19926;-92
2022/12/21 11:21:59;;;;;;;;;;;;;;;;;;4938275;29;19922;-91
2022/12/21 11:24:27;;;;;;;;;;;;;;;;;;4955111;28;19961;-91
2022/12/21 11:26:55;;;;;;;;;;;;;;;;;;4938078;29;19922;-89
2022/12/21 11:29:20;;;;;;;;;;;;;;;;;;4955866;28;19922;-89
2022/12/21 11:31:46;;;;;;;;;;;;;;;;;;4938390;29;19961;-90
2022/12/21 11:34:26;;;;;;;;;;;;;;;;;;4938158;29;19919;-91
2022/12/21 11:36:55;;;;;;;;;;;;;;;;;;4955342;29;19951;-90
2022/12/21 11:39:22;;;;;;;;;;;;;;;;;;4938135;28;20307;-91
2022/12/21 11:41:51;;;;;;;;;;;;;;;;;;4955180;29;20014;-91
2022/12/21 11:44:21;;;;;;;;;;;;;;;;;;4937658;29;19923;-90
2022/12/21 11:46:59;;;;;;;;;;;;;;;;;;4938466;29;20354;-91
2022/12/21 11:49:31;;;;;;;;;;;;;;;;;;4938463;28;19925;-92
2022/12/21 11:52:06;;;;;;;;;;;;;;;;;;4955037;28;19930;-92
2022/12/21 11:54:50;;;;;;;;;;;;;;;;;;4938004;29;20306;-92
2022/12/21 11:57:23;;;;;;;;;;;;;;;;;;4955581;29;20375;-90
2022/12/21 11:59:52;;;;;;;;;;;;;;;;;;4937674;29;20382;-89
2022/12/21 12:02:36;;;;;;;;;;;;;;;;;;4937602;29;20337;-91
2022/12/21 12:05:11;;;;;;;;;;;;;;;;;;4937572;29;19922;-91
2022/12/21 12:07:39;;;;;;;;;;;;;;;;;;4937790;29;20401;-90
2022/12/21 12:13:23;;;;;;;;;;;;;;;;;;4955210;29;20302;-91
2022/12/21 12:15:48;;;;;;;;;;;;;;;;;;4937681;29;19926;-90
2022/12/21 12:18:14;;;;;;;;;;;;;;;;;;4938216;29;19918;-92
2022/12/21 12:23:12;;;;;;;;;;;;;;;;;;4980707;23;19981;-92
2022/12/21 12:25:48;;;;;;;;;;;;;;;;;;4956844;28;20293;-90
2022/12/21 12:28:54;;;;;;;;;;;;;;;;;;4974362;28;19929;-90
2022/12/21 12:31:26;;;;;;;;;;;;;;;;;;4900361;29;19959;-92
2022/12/21 12:33:57;;;;;;;;;;;;;;;;;;4914036;29;19961;-93
2022/12/21 12:36:37;;;;;;;;;;;;;;;;;;4908978;29;19977;-92
2022/12/21 12:39:02;;;;;;;;;;;;;;;;;;4914564;29;19919;-90
2022/12/21 12:41:34;;;;;;;;;;;;;;;;;;4897910;29;19933;-92
2022/12/21 12:44:04;;;;;;;;;;;;;;;;;;4914183;29;20320;-91
2022/12/21 12:46:39;;;;;;;;;;;;;;;;;;4896660;29;20009;-92
2022/12/21 12:49:11;;;;;;;;;;;;;;;;;;4906048;29;19919;-91
2022/12/21 12:51:36;;;;;;;;;;;;;;;;;;4897688;29;19955;-91
2022/12/21 12:54:20;;;;;;;;;;;;;;;;;;4898748;29;20293;-91
2022/12/21 12:57:00;;;;;;;;;;;;;;;;;;4914913;29;19931;-94
2022/12/21 12:59:57;;;;;;;;;;;;;;;;;;4915252;29;19919;-92
2022/12/21 13:02:42;;;;;;;;;;;;;;;;;;4901072;28;20405;-93
2022/12/21 13:05:07;;;;;;;;;;;;;;;;;;4976209;28;19968;-92
2022/12/21 13:07:42;;;;;;;;;;;;;;;;;;4960306;28;19919;-90
2022/12/21 13:10:11;;;;;;;;;;;;;;;;;;4953899;28;20013;-92
2022/12/21 13:12:42;;;;;;;;;;;;;;;;;;4958095;28;19918;-92
2022/12/21 13:15:19;;;;;;;;;;;;;;;;;;4958371;28;20297;-93
2022/12/21 13:17:50;;;;;;;;;;;;;;;;;;4977483;28;19918;-93
2022/12/21 13:20:21;;;;;;;;;;;;;;;;;;4985767;28;19922;-88
2022/12/21 13:22:53;;;;;;;;;;;;;;;;;;4961972;28;19922;-92
2022/12/21 13:25:38;;;;;;;;;;;;;;;;;;4957759;28;19930;-92
2022/12/21 13:28:04;;;;;;;;;;;;;;;;;;4978575;28;19965;-93
2022/12/21 13:30:30;;;;;;;;;;;;;;;;;;4978425;28;19926;-92
2022/12/21 13:32:59;;;;;;;;;;;;;;;;;;4963827;28;19941;-94
2022/12/21 13:35:31;;;;;;;;;;;;;;;;;;4962559;28;19922;-94
2022/12/21 13:38:03;;;;;;;;;;;;;;;;;;4990218;28;19918;-92
2022/12/21 13:40:28;;;;;;;;;;;;;;;;;;4992444;28;20009;-91
2022/12/21 13:43:12;;;;;;;;;;;;;;;;;;4992525;28;19926;-90
2022/12/21 13:45:44;;;;;;;;;;;;;;;;;;4983949;28;19977;-90
2022/12/21 13:48:15;;;;;;;;;;;;;;;;;;4955125;28;20626;-94
2022/12/21 13:50:49;;;;;;;;;;;;;;;;;;4931435;28;19922;-91
2022/12/21 13:53:15;;;;;;;;;;;;;;;;;;4962369;28;19933;-92
2022/12/21 13:55:58;;;;;;;;;;;;;;;;;;4967266;28;19926;-93
2022/12/21 13:58:24;;;;;;;;;;;;;;;;;;4937822;29;19926;-90
2022/12/21 14:00:53;;;;;;;;;;;;;;;;;;4975190;28;19922;-91
2022/12/21 14:03:39;;;;;;;;;;;;;;;;;;4951853;28;19923;-91
2022/12/21 14:06:22;;;;;;;;;;;;;;;;;;4909107;29;19923;-90
2022/12/21 14:08:51;;;;;;;;;;;;;;;;;;4957587;23;19919;-92
2022/12/21 14:11:35;;;;;;;;;;;;;;;;;;4963890;28;19930;-90
2022/12/21 14:16:33;;;;;;;;;;;;;;;;;;4978395;23;20033;-90
2022/12/21 14:19:02;;;;;;;;;;;;;;;;;;4955394;28;19922;-91
2022/12/21 14:21:29;;;;;;;;;;;;;;;;;;4938554;29;19962;-92
2022/12/21 14:24:19;;;;;;;;;;;;;;;;;;4967422;23;19918;-90
2022/12/21 14:26:45;;;;;;;;;;;;;;;;;;4950982;29;19958;-92
2022/12/21 14:29:12;;;;;;;;;;;;;;;;;;4951614;29;19919;-92
2022/12/21 14:31:46;;;;;;;;;;;;;;;;;;4963332;28;19962;-92
2022/12/21 14:34:13;;;;;;;;;;;;;;;;;;4965096;29;19976;-92
2022/12/21 14:36:58;;;;;;;;;;;;;;;;;;4943800;29;20011;-93
2022/12/21 14:39:34;;;;;;;;;;;;;;;;;;4949229;29;19958;-93
2022/12/21 14:42:18;;;;;;;;;;;;;;;;;;4960240;29;19918;-92
2022/12/21 14:45:02;;;;;;;;;;;;;;;;;;4960557;29;19923;-93
2022/12/21 14:47:28;;;;;;;;;;;;;;;;;;4958752;29;19922;-92
2022/12/21 14:49:55;;;;;;;;;;;;;;;;;;4945632;29;19930;-92
2022/12/21 14:52:20;;;;;;;;;;;;;;;;;;4945333;29;19922;-92
2022/12/21 14:55:01;;;;;;;;;;;;;;;;;;4962431;29;19924;-92
2022/12/21 14:57:46;;;;;;;;;;;;;;;;;;4951656;29;19954;-91
2022/12/21 15:00:11;;;;;;;;;;;;;;;;;;4949627;29;19954;-93
2022/12/21 15:02:39;;;;;;;;;;;;;;;;;;4963126;29;19925;-89
2022/12/21 15:05:28;;;;;;;;;;;;;;;;;;4965787;29;19929;-91
2022/12/21 15:08:13;;;;;;;;;;;;;;;;;;4966965;28;19910;-90
2022/12/21 15:10:48;;;;;;;;;;;;;;;;;;4952309;29;19919;-92
2022/12/21 15:16:37;;;;;;;;;;;;;;;;;;4966865;28;19938;-90
2022/12/21 15:19:10;;;;;;;;;;;;;;;;;;4951738;29;19923;-89
2022/12/21 15:22:09;;;;;;;;;;;;;;;;;;4947025;29;19926;-90
2022/12/21 15:24:34;;;;;;;;;;;;;;;;;;4929074;29;19926;-87
2022/12/21 15:27:22;;;;;;;;;;;;;;;;;;4936640;29;20001;-87
2022/12/21 15:29:49;;;;;;;;;;;;;;;;;;4940703;29;20013;-86
2022/12/21 15:32:27;;;;;;;;;;;;;;;;;;4934758;29;19926;-86
2022/12/21 15:34:56;;;;;;;;;;;;;;;;;;4934050;29;20390;-86
2022/12/21 15:37:23;;;;;;;;;;;;;;;;;;4917546;29;19919;-86
2022/12/21 15:39:53;;;;;;;;;;;;;;;;;;4934564;29;19926;-87
2022/12/21 15:42:24;;;;;;;;;;;;;;;;;;4918147;29;20354;-86
2022/12/21 15:44:54;;;;;;;;;;;;;;;;;;4934010;29;20021;-86
2022/12/21 15:47:39;;;;;;;;;;;;;;;;;;4933369;29;20021;-87
2022/12/21 15:50:14;;;;;;;;;;;;;;;;;;4917420;29;19962;-87
2022/12/21 15:52:49;;;;;;;;;;;;;;;;;;4936003;29;20381;-87
2022/12/21 15:55:15;;;;;;;;;;;;;;;;;;4953341;28;19922;-87
2022/12/21 15:57:43;;;;;;;;;;;;;;;;;;4936845;29;20349;-87
2022/12/21 16:00:16;;;;;;;;;;;;;;;;;;4952013;29;19948;-86
2022/12/21 16:02:43;;;;;;;;;;;;;;;;;;4936905;29;19962;-86
2022/12/21 16:05:12;;;;;;;;;;;;;;;;;;4953640;29;20025;-87
2022/12/21 16:07:41;;;;;;;;;;;;;;;;;;4953451;29;19953;-86
2022/12/21 16:10:12;;;;;;;;;;;;;;;;;;4936189;29;19929;-86
2022/12/21 16:12:41;;;;;;;;;;;;;;;;;;4952975;29;19947;-87
2022/12/21 16:15:24;;;;;;;;;;;;;;;;;;4936294;29;19929;-87
2022/12/21 16:18:02;;;;;;;;;;;;;;;;;;4953501;29;20425;-88
2022/12/21 16:20:31;;;;;;;;;;;;;;;;;;4952696;29;19922;-86
2022/12/21 16:22:57;;;;;;;;;;;;;;;;;;4936642;29;19922;-87
2022/12/21 16:25:23;;;;;;;;;;;;;;;;;;4935920;29;20043;-87
2022/12/21 16:28:13;;;;;;;;;;;;;;;;;;4953230;29;20015;-87
2022/12/21 16:30:39;;;;;;;;;;;;;;;;;;4936051;29;20013;-88
2022/12/21 16:33:05;;;;;;;;;;;;;;;;;;4953240;29;20394;-85
2022/12/21 16:35:30;;;;;;;;;;;;;;;;;;4952966;28;19923;-87
2022/12/21 16:37:56;;;;;;;;;;;;;;;;;;4953610;28;19918;-86
2022/12/21 16:40:23;;;;;;;;;;;;;;;;;;4937236;29;19962;-86
2022/12/21 16:42:51;;;;;;;;;;;;;;;;;;4949129;29;20377;-87
2022/12/21 16:45:26;;;;;;;;;;;;;;;;;;4920831;29;19922;-86
2022/12/21 16:48:10;;;;;;;;;;;;;;;;;;4913602;29;19923;-86
2022/12/21 16:50:55;;;;;;;;;;;;;;;;;;4930625;29;19958;-88
2022/12/21 16:53:40;;;;;;;;;;;;;;;;;;4912632;29;19923;-88
2022/12/21 16:56:32;;;;;;;;;;;;;;;;;;4913339;29;19978;-89
2022/12/21 16:59:05;;;;;;;;;;;;;;;;;;4942991;29;19929;-88
2022/12/21 17:01:36;;;;;;;;;;;;;;;;;;4917744;29;19953;-87
2022/12/21 17:04:17;;;;;;;;;;;;;;;;;;4931598;29;19966;-87
2022/12/21 17:06:48;;;;;;;;;;;;;;;;;;4948850;29;20045;-87
2022/12/21 17:09:20;;;;;;;;;;;;;;;;;;4949359;28;19922;-87
2022/12/21 17:11:56;;;;;;;;;;;;;;;;;;4932320;29;19934;-87
2022/12/21 17:29:38;;;;;;;;;;;;;;;;;;4944768;23;19938;-88
2022/12/21 17:32:44;;;;;;;;;;;;;;;;;;4931396;29;19965;-89
2022/12/21 17:54:34;;;;;;;;;;;;;;;;;;5130072;23;20416;-89
2022/12/21 17:57:22;;;;;;;;;;;;;;;;;;4928065;23;20409;-90
2022/12/21 18:03:06;;;;;;;;;;;;;;;;;;5327835;23;19965;-89
2022/12/21 18:06:06;;;;;;;;;;;;;;;;;;5009054;23;21733;-88
2022/12/21 18:11:21;;;;;;;;;;;;;;;;;;5499765;23;19930;-92
2022/12/21 18:13:47;;;;;;;;;;;;;;;;;;4934680;29;19981;-93
2022/12/21 18:16:37;;;;;;;;;;;;;;;;;;4934671;29;20412;-92
2022/12/21 18:19:06;;;;;;;;;;;;;;;;;;4934979;29;19931;-88
2022/12/21 18:21:32;;;;;;;;;;;;;;;;;;4935357;29;19922;-92